aviador You're here:

UKBB Decoded Metar

KIEV in UKRAINE
Report Time2018-07-23 07:30:00
UTC Time2018-07-23 07:45:35
Flight Rules vfr VFR
WindVRB at 2 kt
Visibility9999 m
Phenomena:N/A
Clouds:Few CB 016 Hf
Broken 040 Hf
Expected CloudBase > 2,000 ft AGL from Temp-Dew spread
Ceiling4,000 ft
Temp23°C (ISA +9)
Dew Point18°C (74% RH)
QNH1003 hPa
Density Alt2,024 ft
Elevation390 ft
Report Wrong Elevation
Raw Report
METAR UKBB 230730Z VRB01MPS 9999 FEW016CB BKN040 23/18 Q1003 R18L/190060
R18R/CLRD// NOSIG=

Extra information for UKBB:More info

Metar Taf Metar & Taf Last 4 Metars F.Rules Stats Wind Profile Meteogram Temp Stats Airport Information Weather charts Add Link Nearby VenuesMetar ALERT Operation Metar Decoded Social comments